createdAt,value
2018-03-12T00:01:38.608Z,15.50
2018-03-12T00:04:06.834Z,10.07
2018-03-12T00:06:36.579Z,21.27
2018-03-12T00:09:05.617Z,15.03
2018-03-12T00:11:33.904Z,13.43
2018-03-12T00:14:03.037Z,13.50
2018-03-12T00:16:31.276Z,9.03
2018-03-12T00:18:59.536Z,10.97
2018-03-12T00:21:27.770Z,11.07
2018-03-12T00:23:56.794Z,11.07
2018-03-12T00:26:25.041Z,10.77
2018-03-12T00:28:55.958Z,15.63
2018-03-12T00:31:24.222Z,21.50
2018-03-12T00:33:54.612Z,15.67
2018-03-12T00:36:22.876Z,14.03
2018-03-12T00:38:51.474Z,18.40
2018-03-12T00:41:19.694Z,17.17
2018-03-12T00:43:47.947Z,15.37
2018-03-12T00:46:16.221Z,16.97
2018-03-12T00:48:44.451Z,12.90
2018-03-12T00:51:12.722Z,13.20
2018-03-12T00:53:41.761Z,12.20
2018-03-12T00:56:10.790Z,15.40
2018-03-12T00:58:39.010Z,12.00
2018-03-12T01:01:07.275Z,14.97
2018-03-12T01:03:36.322Z,16.90
2018-03-12T01:06:04.567Z,13.70
2018-03-12T01:08:32.825Z,17.80
2018-03-12T01:11:01.158Z,12.67
2018-03-12T01:13:29.418Z,17.07
2018-03-12T01:15:57.665Z,15.47
2018-03-12T01:18:28.794Z,14.37
2018-03-12T01:20:57.034Z,11.37
2018-03-12T01:23:25.286Z,12.10
2018-03-12T01:25:53.538Z,16.47
2018-03-12T01:28:21.758Z,17.77
2018-03-12T01:30:50.002Z,15.93
2018-03-12T01:33:19.013Z,16.63
2018-03-12T01:35:47.304Z,17.20
2018-03-12T01:38:15.574Z,14.97
2018-03-12T01:40:43.856Z,17.63
2018-03-12T01:43:12.127Z,18.93
2018-03-12T01:45:40.382Z,17.07
2018-03-12T01:48:09.416Z,14.87
2018-03-12T01:50:38.028Z,22.73
2018-03-12T01:53:06.265Z,17.10
2018-03-12T01:55:34.517Z,22.30
2018-03-12T01:58:03.542Z,18.30
2018-03-12T02:00:31.789Z,18.67
2018-03-12T02:03:00.833Z,20.53
2018-03-12T02:05:29.074Z,19.27
2018-03-12T02:07:57.321Z,15.90
2018-03-12T02:10:27.887Z,16.07
2018-03-12T02:12:56.148Z,15.87
2018-03-12T02:15:25.208Z,16.60
2018-03-12T02:17:53.468Z,16.77
2018-03-12T02:20:21.744Z,21.33
2018-03-12T02:22:49.982Z,19.50
2018-03-12T02:25:18.987Z,28.00
2018-03-12T02:27:47.243Z,17.47
2018-03-12T02:30:16.251Z,19.27
2018-03-12T02:32:44.514Z,20.67
2018-03-12T02:35:12.770Z,21.60
2018-03-12T02:37:41.077Z,21.73
2018-03-12T02:40:09.338Z,21.93
2018-03-12T02:42:38.350Z,19.20
2018-03-12T02:45:06.658Z,18.03
2018-03-12T02:47:34.883Z,24.00
2018-03-12T02:50:03.948Z,21.33
2018-03-12T02:52:32.176Z,19.43
2018-03-12T02:55:00.431Z,23.80
2018-03-12T02:57:29.444Z,16.87
2018-03-12T02:59:57.806Z,21.37
2018-03-12T03:02:26.132Z,20.60
2018-03-12T03:04:55.096Z,19.80
2018-03-12T03:07:24.138Z,20.53
2018-03-12T03:09:52.377Z,22.17
2018-03-12T03:12:20.638Z,18.70
2018-03-12T03:14:49.666Z,20.90
2018-03-12T03:17:17.990Z,21.17
2018-03-12T03:19:46.201Z,20.23
2018-03-12T03:22:14.450Z,25.13
2018-03-12T03:24:42.711Z,21.03
2018-03-12T03:27:10.939Z,22.70
2018-03-12T03:29:39.202Z,19.20
2018-03-12T03:32:08.186Z,18.30
2018-03-12T03:34:37.221Z,26.53
2018-03-12T03:37:05.462Z,20.00
2018-03-12T03:39:34.481Z,19.50
2018-03-12T03:42:02.785Z,23.20
2018-03-12T03:44:31.055Z,24.63
2018-03-12T03:46:59.323Z,19.57
2018-03-12T03:49:27.541Z,22.83
2018-03-12T03:51:55.813Z,19.30
2018-03-12T03:54:24.044Z,25.10
2018-03-12T03:56:52.287Z,23.43
2018-03-12T03:59:21.295Z,22.20
2018-03-12T04:01:50.354Z,19.97
2018-03-12T04:04:18.610Z,29.07
2018-03-12T04:06:46.848Z,18.07
2018-03-12T04:09:17.206Z,24.80
2018-03-12T04:11:45.477Z,21.00
2018-03-12T04:14:13.754Z,21.80
2018-03-12T04:16:41.974Z,17.17
2018-03-12T04:19:10.254Z,21.70
2018-03-12T04:21:38.969Z,19.33
2018-03-12T04:24:08.015Z,22.33
2018-03-12T04:26:36.246Z,25.03
2018-03-12T04:29:04.520Z,21.70
2018-03-12T04:31:33.554Z,19.73
2018-03-12T04:34:01.790Z,24.70
2018-03-12T04:36:30.795Z,21.30
2018-03-12T04:38:59.043Z,19.07
2018-03-12T04:41:27.297Z,19.70
2018-03-12T04:43:55.551Z,21.60
2018-03-12T04:46:23.877Z,20.40
2018-03-12T04:48:52.101Z,24.67
2018-03-12T04:51:20.330Z,24.53
2018-03-12T04:53:49.354Z,17.73
2018-03-12T04:56:17.623Z,25.73
2018-03-12T04:58:45.912Z,19.87
2018-03-12T05:01:14.151Z,16.33
2018-03-12T05:03:42.415Z,17.37
2018-03-12T05:06:10.729Z,16.20
2018-03-12T05:08:39.013Z,17.00
2018-03-12T05:11:08.009Z,16.80
2018-03-12T05:13:37.036Z,20.30
2018-03-12T05:16:05.302Z,17.27
2018-03-12T05:18:33.594Z,18.17
2018-03-12T05:21:01.847Z,18.07
2018-03-12T05:23:30.105Z,20.93
2018-03-12T05:25:58.462Z,17.50
2018-03-12T05:28:28.727Z,17.03
2018-03-12T05:30:59.286Z,25.67
2018-03-12T05:33:29.628Z,14.60
2018-03-12T05:35:58.771Z,22.30
2018-03-12T05:38:27.718Z,20.63
2018-03-12T05:40:55.961Z,18.07
2018-03-12T05:43:24.212Z,20.83
2018-03-12T05:45:53.237Z,22.50
2018-03-12T05:48:21.483Z,21.17
2018-03-12T05:53:25.072Z,17.43
2018-03-12T05:55:53.385Z,17.33
2018-03-12T05:58:21.621Z,16.57
2018-03-12T06:00:49.898Z,25.50
2018-03-12T06:03:18.154Z,20.60
2018-03-12T06:05:46.429Z,16.90
2018-03-12T06:08:14.704Z,20.17
2018-03-12T06:10:43.131Z,19.50
2018-03-12T06:13:11.422Z,20.83
2018-03-12T06:15:39.690Z,19.97
2018-03-12T06:18:08.713Z,18.60
2018-03-12T06:20:36.969Z,31.07
2018-03-12T06:23:06.108Z,23.00
2018-03-12T06:25:35.909Z,22.90
2018-03-12T06:28:04.189Z,20.17
2018-03-12T06:30:32.431Z,23.57
2018-03-12T06:33:01.474Z,20.93
2018-03-12T06:35:29.737Z,31.33
2018-03-12T06:37:57.986Z,22.90
2018-03-12T06:40:27.042Z,20.53
2018-03-12T06:42:55.361Z,26.67
2018-03-12T06:45:25.155Z,22.53
2018-03-12T06:47:53.398Z,28.37
2018-03-12T06:50:21.632Z,25.10
2018-03-12T06:52:50.670Z,44.87
2018-03-12T06:55:18.903Z,25.87
2018-03-12T06:57:51.675Z,37.30
2018-03-12T07:00:19.929Z,27.13
2018-03-12T07:02:48.177Z,22.33
2018-03-12T07:05:16.438Z,26.00
2018-03-12T07:07:44.698Z,24.80
2018-03-12T07:10:13.738Z,22.57
2018-03-12T07:12:41.965Z,23.37
2018-03-12T07:15:10.987Z,19.17
2018-03-12T07:17:39.208Z,26.30
2018-03-12T07:20:07.467Z,23.90
2018-03-12T07:22:35.701Z,25.63
2018-03-12T07:25:04.740Z,19.37
2018-03-12T07:27:33.021Z,31.40
2018-03-12T07:30:01.254Z,23.50
2018-03-12T07:32:30.865Z,22.30
2018-03-12T07:34:59.896Z,19.97
2018-03-12T07:37:28.134Z,24.50
2018-03-12T07:39:56.416Z,25.53
2018-03-12T07:42:29.369Z,25.60
2018-03-12T07:44:57.612Z,22.83
2018-03-12T07:47:25.893Z,25.50
2018-03-12T07:53:04.448Z,26.37
2018-03-12T07:55:32.706Z,20.53
2018-03-12T07:58:01.050Z,22.53
2018-03-12T08:00:30.041Z,21.87
2018-03-12T08:02:58.327Z,18.50
2018-03-12T08:08:36.346Z,23.83
2018-03-12T08:11:05.388Z,23.43
2018-03-12T08:13:33.719Z,19.33
2018-03-12T08:16:01.946Z,19.77
2018-03-12T08:18:30.194Z,21.77
2018-03-12T08:20:58.468Z,27.97
2018-03-12T08:23:26.727Z,24.10
2018-03-12T08:25:55.780Z,23.20
2018-03-12T08:28:24.031Z,20.27
2018-03-12T08:30:52.774Z,19.50
2018-03-12T08:33:21.867Z,22.90
2018-03-12T08:35:50.070Z,25.53
2018-03-12T08:38:19.112Z,24.13
2018-03-12T08:40:47.367Z,22.43
2018-03-12T08:43:17.101Z,17.60
2018-03-12T08:45:45.409Z,25.10
2018-03-12T08:48:13.702Z,22.27
2018-03-12T08:50:42.886Z,17.23
2018-03-12T08:53:12.636Z,24.57
2018-03-12T08:55:40.928Z,19.07
2018-03-12T08:58:09.274Z,15.90
2018-03-12T09:00:38.314Z,17.80
2018-03-12T09:03:06.562Z,23.90
2018-03-12T09:05:34.881Z,17.83
2018-03-12T09:08:03.187Z,15.30
2018-03-12T09:10:31.406Z,16.63
2018-03-12T09:12:59.674Z,15.80
2018-03-12T09:15:27.918Z,12.30
2018-03-12T09:17:56.948Z,11.97
2018-03-12T09:20:25.211Z,18.83
2018-03-12T09:22:53.460Z,12.87
2018-03-12T09:25:21.697Z,10.17
2018-03-12T09:27:49.955Z,13.13
2018-03-12T09:30:18.243Z,10.87
2018-03-12T09:32:46.525Z,11.40
2018-03-12T09:35:15.518Z,14.83
2018-03-12T09:37:43.811Z,10.63
2018-03-12T09:40:12.134Z,11.73
2018-03-12T09:42:41.159Z,13.57
2018-03-12T09:45:09.445Z,12.30
2018-03-12T09:47:37.702Z,24.20
2018-03-12T09:50:06.725Z,10.00
2018-03-12T09:52:34.968Z,10.47
2018-03-12T09:55:04.027Z,10.90
2018-03-12T09:57:32.275Z,11.90
2018-03-12T10:00:00.671Z,9.97
2018-03-12T10:02:28.905Z,15.60
2018-03-12T10:04:57.193Z,9.00
2018-03-12T10:07:25.452Z,12.23
2018-03-12T10:09:54.476Z,14.27
2018-03-12T10:12:22.733Z,9.00
2018-03-12T10:14:50.981Z,9.80
2018-03-12T10:17:19.238Z,9.33
2018-03-12T10:19:47.478Z,6.30
2018-03-12T10:22:15.758Z,6.40
2018-03-12T10:24:44.033Z,7.50
2018-03-12T10:27:12.305Z,6.87
2018-03-12T10:29:40.643Z,12.33
2018-03-12T10:32:11.539Z,18.20
2018-03-12T10:34:39.805Z,8.30
2018-03-12T10:37:08.050Z,11.47
2018-03-12T10:39:37.105Z,15.00
2018-03-12T10:42:05.354Z,13.00
2018-03-12T10:44:33.616Z,8.70
2018-03-12T10:47:01.877Z,6.43
2018-03-12T10:49:30.937Z,14.23
2018-03-12T10:51:59.654Z,14.00
2018-03-12T10:54:28.679Z,8.70
2018-03-12T10:56:56.922Z,8.37
2018-03-12T10:59:25.206Z,20.70
2018-03-12T11:02:04.959Z,8.33
2018-03-12T11:04:37.856Z,13.57
2018-03-12T11:07:10.854Z,66.83
2018-03-12T11:09:39.103Z,8.00
2018-03-12T11:12:08.602Z,10.83
2018-03-12T11:14:36.834Z,9.53
2018-03-12T11:17:05.103Z,9.23
2018-03-12T11:19:33.350Z,7.03
2018-03-12T11:22:02.378Z,7.27
2018-03-12T11:24:30.632Z,12.57
2018-03-12T11:26:59.640Z,9.77
2018-03-12T11:29:27.922Z,3.93
2018-03-12T11:31:56.161Z,6.77
2018-03-12T11:34:25.610Z,6.10
2018-03-12T11:36:53.821Z,5.10
2018-03-12T11:39:22.912Z,7.20
2018-03-12T11:41:51.185Z,9.63
2018-03-12T11:44:19.471Z,8.20
2018-03-12T11:46:47.699Z,4.03
2018-03-12T11:49:15.965Z,5.90
2018-03-12T11:51:44.221Z,2.63
2018-03-12T11:54:12.462Z,9.83
2018-03-12T11:56:40.759Z,2.83
2018-03-12T11:59:09.129Z,6.13
2018-03-12T12:01:37.395Z,7.70
2018-03-12T12:04:05.642Z,2.60
2018-03-12T12:06:33.899Z,7.23
2018-03-12T12:09:02.929Z,4.23
2018-03-12T12:11:31.213Z,6.03
2018-03-12T12:14:00.159Z,2.23
2018-03-12T12:16:28.394Z,3.30
2018-03-12T12:18:56.643Z,3.33
2018-03-12T12:21:25.669Z,2.33
2018-03-12T12:23:53.925Z,5.80
2018-03-12T12:26:22.185Z,2.87
2018-03-12T12:28:51.207Z,4.07
2018-03-12T12:31:19.493Z,4.13
2018-03-12T12:33:47.806Z,7.83
2018-03-12T12:36:16.046Z,3.27
2018-03-12T12:38:44.288Z,8.73
2018-03-12T12:41:13.365Z,6.10
2018-03-12T12:43:42.414Z,4.40
2018-03-12T12:46:10.756Z,3.37
2018-03-12T12:48:39.376Z,2.50
2018-03-12T12:51:07.557Z,2.80
2018-03-12T12:53:35.827Z,6.07
2018-03-12T12:56:04.109Z,3.90
2018-03-12T12:58:36.463Z,5.00
2018-03-12T13:01:04.716Z,10.90
2018-03-12T13:03:33.041Z,21.57
2018-03-12T13:06:02.088Z,16.13
2018-03-12T13:08:31.117Z,12.07
2018-03-12T13:10:59.388Z,9.57
2018-03-12T13:13:27.626Z,22.37
2018-03-12T13:15:55.919Z,13.13
2018-03-12T13:18:24.976Z,7.07
2018-03-12T13:20:53.223Z,22.73
2018-03-12T13:23:21.475Z,5.97
2018-03-12T13:25:49.757Z,15.53
2018-03-12T13:28:18.754Z,17.17
2018-03-12T13:30:47.395Z,17.77
2018-03-12T13:33:15.676Z,11.20
2018-03-12T13:35:43.980Z,31.07
2018-03-12T13:38:12.197Z,11.43
2018-03-12T13:40:40.463Z,7.10
2018-03-12T13:43:08.714Z,19.03
2018-03-12T13:45:37.430Z,14.77
2018-03-12T13:48:05.684Z,7.50
2018-03-12T13:50:33.951Z,8.20
2018-03-12T13:55:38.038Z,6.80
2018-03-12T13:58:06.341Z,15.60
2018-03-12T14:00:34.583Z,7.00
2018-03-12T14:03:02.853Z,15.40
2018-03-12T14:05:31.167Z,9.67
2018-03-12T14:07:59.443Z,10.40
2018-03-12T14:10:27.711Z,10.97
2018-03-12T14:12:55.950Z,5.63
2018-03-12T14:15:24.228Z,12.40
2018-03-12T14:17:52.674Z,36.37
2018-03-12T14:20:21.710Z,10.50
2018-03-12T14:22:49.965Z,4.43
2018-03-12T14:25:18.228Z,16.20
2018-03-12T14:27:47.273Z,3.27
2018-03-12T14:30:15.602Z,9.10
2018-03-12T14:32:43.858Z,5.97
2018-03-12T14:35:12.134Z,11.50
2018-03-12T14:37:40.426Z,8.20
2018-03-12T14:40:09.162Z,8.70
2018-03-12T14:42:37.449Z,16.73
2018-03-12T14:45:05.725Z,16.57
2018-03-12T14:47:33.950Z,10.13
2018-03-12T14:50:02.982Z,7.17
2018-03-12T14:52:32.011Z,4.63
2018-03-12T14:55:00.274Z,17.27
2018-03-12T14:57:28.586Z,31.80
2018-03-12T14:59:56.911Z,10.33
2018-03-12T15:02:25.896Z,6.87
2018-03-12T15:04:54.127Z,8.53
2018-03-12T15:07:22.412Z,10.40
2018-03-12T15:09:50.673Z,3.93
2018-03-12T15:12:19.888Z,2.30
2018-03-12T15:14:48.125Z,17.73
2018-03-12T15:17:16.362Z,5.93
2018-03-12T15:19:45.411Z,10.67
2018-03-12T15:22:13.673Z,3.20
2018-03-12T15:24:41.923Z,10.53
2018-03-12T15:27:10.983Z,11.10
2018-03-12T15:29:39.293Z,7.83
2018-03-12T15:32:08.333Z,8.63
2018-03-12T15:34:36.588Z,6.40
2018-03-12T15:37:04.827Z,6.57
2018-03-12T15:39:33.883Z,11.30
2018-03-12T15:42:02.218Z,7.40
2018-03-12T15:44:30.448Z,9.23
2018-03-12T15:46:59.602Z,4.33
2018-03-12T15:49:28.668Z,11.57
2018-03-12T15:51:58.432Z,17.87
2018-03-12T15:54:26.689Z,9.70
2018-03-12T15:56:55.772Z,13.40
2018-03-12T15:59:24.806Z,80.50
2018-03-12T16:01:53.053Z,11.27
2018-03-12T16:04:21.305Z,12.30
2018-03-12T16:06:50.480Z,14.30
2018-03-12T16:09:18.746Z,15.87
2018-03-12T16:11:47.017Z,17.93
2018-03-12T16:14:15.278Z,2.97
2018-03-12T16:16:46.081Z,13.30
2018-03-12T16:19:15.207Z,13.70
2018-03-12T16:21:43.488Z,4.43
2018-03-12T16:24:11.785Z,16.57
2018-03-12T16:26:40.138Z,5.80
2018-03-12T16:29:09.155Z,19.37
2018-03-12T16:31:37.477Z,2.73
2018-03-12T16:34:05.742Z,2.97
2018-03-12T16:36:34.024Z,7.13
2018-03-12T16:39:02.464Z,5.17
2018-03-12T16:41:30.778Z,3.77
2018-03-12T17:05:03.588Z,2.30
2018-03-12T17:07:31.865Z,7.13
2018-03-12T17:10:00.165Z,6.10
2018-03-12T17:12:28.736Z,11.47
2018-03-12T17:14:57.048Z,11.83
2018-03-12T17:17:26.081Z,4.77
2018-03-12T17:19:54.441Z,3.17
2018-03-12T17:22:23.534Z,6.00
2018-03-12T17:24:52.572Z,2.20
2018-03-12T17:27:20.885Z,2.30
2018-03-12T17:29:49.135Z,1.10
2018-03-12T17:32:17.463Z,11.30
2018-03-12T17:34:46.484Z,17.97
2018-03-12T17:37:14.924Z,1.50
2018-03-12T17:39:43.216Z,1.57
2018-03-12T17:42:11.462Z,3.60
2018-03-12T17:44:39.790Z,6.50
2018-03-12T17:47:08.795Z,3.23
2018-03-12T17:49:37.991Z,3.83
2018-03-12T17:52:06.296Z,8.33
2018-03-12T17:54:34.590Z,7.90
2018-03-12T17:57:02.884Z,3.60
2018-03-12T17:59:31.114Z,3.03
2018-03-12T18:01:59.381Z,2.30
2018-03-12T18:04:27.659Z,1.70
2018-03-12T18:06:55.964Z,2.77
2018-03-12T18:09:24.210Z,1.27
2018-03-12T18:11:53.277Z,4.27
2018-03-12T18:14:22.310Z,8.33
2018-03-12T18:16:50.550Z,4.77
2018-03-12T18:19:19.654Z,3.20
2018-03-12T18:21:47.914Z,6.63
2018-03-12T18:24:16.974Z,8.40
2018-03-12T18:26:45.194Z,6.47
2018-03-12T18:29:13.458Z,11.87
2018-03-12T18:31:42.550Z,3.97
2018-03-12T18:34:10.840Z,4.20
2018-03-12T18:36:39.858Z,4.73
2018-03-12T18:39:08.280Z,5.13
2018-03-12T18:41:37.544Z,17.13
2018-03-12T18:44:06.588Z,3.70
2018-03-12T18:46:34.872Z,3.80
2018-03-12T18:49:03.410Z,4.63
2018-03-12T18:51:32.426Z,16.93
2018-03-12T18:54:00.689Z,5.60
2018-03-12T18:56:29.025Z,2.90
2018-03-12T18:58:58.091Z,2.30
2018-03-12T19:01:26.455Z,5.20
2018-03-12T19:03:54.696Z,5.13
2018-03-12T19:06:23.702Z,3.87
2018-03-12T19:08:51.994Z,2.30
2018-03-12T19:11:20.278Z,1.90
2018-03-12T19:13:48.601Z,4.73
2018-03-12T19:16:17.665Z,1.93
2018-03-12T19:18:45.926Z,3.73
2018-03-12T19:21:14.186Z,3.07
2018-03-12T19:23:43.183Z,7.83
2018-03-12T19:26:11.509Z,3.23
2018-03-12T19:28:39.753Z,2.80
2018-03-12T19:31:08.890Z,6.70
2018-03-12T19:33:37.934Z,14.93
2018-03-12T19:36:06.241Z,3.70
2018-03-12T19:38:34.500Z,3.90
2018-03-12T19:41:03.728Z,8.23
2018-03-12T19:43:32.127Z,4.20
2018-03-12T19:46:01.175Z,2.37
2018-03-12T19:48:29.428Z,1.00
2018-03-12T19:51:05.374Z,4.37
2018-03-12T19:53:34.424Z,5.70
2018-03-12T19:56:02.694Z,2.40
2018-03-12T19:58:32.438Z,2.50
2018-03-12T20:01:00.786Z,4.23
2018-03-12T20:03:29.125Z,3.40
2018-03-12T20:05:58.196Z,11.53
2018-03-12T20:08:28.527Z,2.53
2018-03-12T20:10:58.336Z,2.30
2018-03-12T20:13:28.834Z,14.03
2018-03-12T20:16:01.790Z,4.27
2018-03-12T20:18:44.973Z,1.90
2018-03-12T20:21:13.270Z,13.50
2018-03-12T20:23:42.346Z,7.73
2018-03-12T20:26:11.479Z,3.80
2018-03-12T20:28:40.631Z,3.60
2018-03-12T20:31:08.963Z,7.23
2018-03-12T20:33:38.080Z,4.83
2018-03-12T20:36:06.351Z,3.00
2018-03-12T20:38:34.603Z,2.73
2018-03-12T20:41:02.918Z,4.40
2018-03-12T20:43:31.320Z,1.50
2018-03-12T20:45:59.626Z,2.50
2018-03-12T20:48:27.968Z,7.40
2018-03-12T20:50:56.309Z,5.67
2018-03-12T20:53:25.398Z,2.20
2018-03-12T20:55:54.376Z,3.90
2018-03-12T20:58:22.708Z,3.77
2018-03-12T21:00:51.457Z,4.33
2018-03-12T21:03:20.501Z,3.10
2018-03-12T21:05:48.832Z,4.07
2018-03-12T21:08:17.861Z,3.27
2018-03-12T21:10:46.147Z,3.83
2018-03-12T21:13:14.925Z,2.60
2018-03-12T21:15:43.201Z,2.57
2018-03-12T21:18:11.542Z,2.47
2018-03-12T21:20:39.784Z,6.93
2018-03-12T21:23:08.033Z,5.33
2018-03-12T21:25:36.339Z,4.30
2018-03-12T21:28:04.599Z,4.80
2018-03-12T21:30:32.825Z,3.53
2018-03-12T21:33:01.888Z,3.03
2018-03-12T21:35:30.143Z,2.90
2018-03-12T21:37:58.406Z,5.10
2018-03-12T21:40:26.673Z,7.10
2018-03-12T21:42:55.809Z,7.33
2018-03-12T21:45:24.058Z,2.77
2018-03-12T21:47:52.305Z,4.37
2018-03-12T21:50:20.591Z,5.77
2018-03-12T21:52:49.662Z,5.50
2018-03-12T21:55:17.906Z,5.63
2018-03-12T21:57:46.171Z,6.40
2018-03-12T22:00:14.415Z,13.50
2018-03-12T22:02:43.469Z,3.00
2018-03-12T22:05:11.768Z,11.17
2018-03-12T22:07:40.020Z,6.13
2018-03-12T22:10:08.332Z,5.20
2018-03-12T22:12:36.631Z,5.00
2018-03-12T22:15:04.855Z,3.60
2018-03-12T22:17:33.276Z,4.47
2018-03-12T22:20:02.930Z,4.53
2018-03-12T22:22:31.214Z,3.50
2018-03-12T22:24:59.457Z,4.07
2018-03-12T22:27:27.733Z,2.57
2018-03-12T22:29:56.017Z,4.73
2018-03-12T22:32:24.263Z,4.13
2018-03-12T22:34:53.278Z,3.77
2018-03-12T22:37:21.530Z,4.47
2018-03-12T22:39:49.812Z,3.10
2018-03-12T22:42:18.044Z,2.67
2018-03-12T22:44:46.369Z,5.33
2018-03-12T22:47:14.627Z,3.30
2018-03-12T22:49:42.861Z,2.10
2018-03-12T22:52:11.145Z,3.93
2018-03-12T22:54:39.404Z,3.10
2018-03-12T22:57:08.414Z,3.67
2018-03-12T22:59:36.647Z,4.60
2018-03-12T23:02:05.653Z,3.83
2018-03-12T23:04:34.664Z,3.50
2018-03-12T23:07:03.659Z,6.10
2018-03-12T23:09:32.049Z,3.67
2018-03-12T23:12:00.310Z,7.83
2018-03-12T23:14:28.583Z,6.20
2018-03-12T23:16:57.591Z,3.83
2018-03-12T23:19:25.855Z,3.70
2018-03-12T23:21:54.858Z,5.37
2018-03-12T23:24:23.202Z,5.80
2018-03-12T23:26:51.474Z,4.20
2018-03-12T23:29:19.697Z,5.17
2018-03-12T23:31:48.065Z,4.50
2018-03-12T23:34:17.056Z,4.60
2018-03-12T23:36:46.078Z,2.37
2018-03-12T23:39:14.307Z,3.20
2018-03-12T23:41:42.565Z,4.57
2018-03-12T23:44:10.842Z,8.70
2018-03-12T23:46:39.105Z,4.37
2018-03-12T23:49:07.343Z,2.60
2018-03-12T23:51:36.353Z,2.63
2018-03-12T23:54:04.604Z,2.73
2018-03-12T23:56:33.612Z,4.43
2018-03-12T23:59:02.643Z,3.60
